Time;durP1;ratioP1;P1;durP2;ratioP2;P2;SDS_P1;SDS_P2;PMS_P1;PMS_P2;Temp;Humidity;BMP_temperature;BMP_pressure;BME280_temperature;BME280_humidity;BME280_pressure;Samples;Min_cycle;Max_cycle;Signal;HPM_P1;HPM_P2
2022/03/14 00:00:22;;;;;;;12.05;7.22;;;2.00;89.30;;;;;;4997191;28;20100;-36
2022/03/14 00:02:48;;;;;;;13.43;7.10;;;2.10;88.40;;;;;;5000728;28;20030;-36
2022/03/14 00:05:15;;;;;;;9.00;5.45;;;2.20;87.40;;;;;;4998795;28;20030;-37
2022/03/14 00:07:45;;;;;;;12.10;6.93;;;2.20;87.80;;;;;;5000759;28;20022;-36
2022/03/14 00:10:13;;;;;;;12.00;7.45;;;2.20;83.80;;;;;;5000699;28;20034;-37
2022/03/14 00:12:40;;;;;;;;;;;2.20;84.90;;;;;;5001260;28;20045;-37
2022/03/14 00:15:09;;;;;;;7.45;5.22;;;2.20;87.50;;;;;;5001542;28;19909;-36
2022/03/14 00:17:35;;;;;;;10.68;7.18;;;2.10;91.30;;;;;;5003607;28;20518;-36
2022/03/14 00:20:02;;;;;;;12.32;7.43;;;1.70;92.30;;;;;;4998309;28;20030;-36
2022/03/14 00:22:28;;;;;;;11.18;6.18;;;1.30;94.00;;;;;;5005398;28;20034;-39
2022/03/14 00:24:54;;;;;;;10.93;6.50;;;1.40;92.30;;;;;;4999757;28;20033;-38
2022/03/14 00:27:20;;;;;;;11.05;7.03;;;1.40;93.70;;;;;;4999849;28;20038;-38
2022/03/14 00:29:45;;;;;;;15.43;7.45;;;1.50;92.70;;;;;;5005442;28;20033;-38
2022/03/14 00:32:11;;;;;;;14.75;8.30;;;1.60;91.80;;;;;;4999918;28;20534;-37
2022/03/14 00:34:37;;;;;;;14.35;6.80;;;1.50;92.20;;;;;;4981130;28;20026;-38
2022/03/14 00:37:03;;;;;;;11.43;7.72;;;1.50;93.20;;;;;;5001807;28;20034;-37
2022/03/14 00:39:28;;;;;;;11.13;6.03;;;1.50;91.60;;;;;;5003649;28;20121;-38
2022/03/14 00:41:54;;;;;;;12.00;7.25;;;1.50;93.80;;;;;;4988273;28;20104;-37
2022/03/14 00:44:20;;;;;;;10.38;6.78;;;1.40;94.20;;;;;;5001876;28;20037;-40
2022/03/14 00:46:46;;;;;;;14.30;6.97;;;1.30;93.30;;;;;;5004631;28;20037;-38
2022/03/14 00:49:11;;;;;;;12.55;6.78;;;1.40;92.50;;;;;;5000896;28;20026;-40
2022/03/14 00:51:37;;;;;;;12.68;7.97;;;1.20;95.70;;;;;;5004569;28;20084;-39
2022/03/14 00:54:04;;;;;;;12.43;6.50;;;1.00;96.90;;;;;;5001456;28;20030;-37
2022/03/14 00:56:30;;;;;;;12.68;7.65;;;1.10;96.50;;;;;;5000975;28;20049;-39
2022/03/14 00:58:55;;;;;;;15.30;6.70;;;1.20;96.30;;;;;;4999273;28;20034;-40
2022/03/14 01:01:22;;;;;;;11.18;6.93;;;1.40;95.10;;;;;;5004116;28;20030;-38
2022/03/14 01:03:48;;;;;;;14.90;7.80;;;1.50;94.40;;;;;;5002971;28;20021;-37
2022/03/14 01:06:14;;;;;;;9.00;6.82;;;1.50;94.50;;;;;;5002015;28;20044;-39
2022/03/14 01:08:40;;;;;;;12.63;6.80;;;1.40;94.20;;;;;;4982249;28;20454;-36
2022/03/14 01:11:06;;;;;;;9.63;6.35;;;1.50;93.90;;;;;;5001147;28;20034;-38
2022/03/14 01:13:32;;;;;;;16.85;7.28;;;1.60;95.80;;;;;;5002733;28;20084;-37
2022/03/14 01:15:59;;;;;;;11.57;7.47;;;1.50;95.10;;;;;;5001724;28;20553;-36
2022/03/14 01:18:25;;;;;;;17.38;8.73;;;1.60;93.70;;;;;;4986921;28;20046;-40
2022/03/14 01:20:51;;;;;;;12.57;7.53;;;1.60;93.50;;;;;;5006341;28;20854;-36
2022/03/14 01:23:17;;;;;;;13.75;6.32;;;1.60;95.60;;;;;;4989319;28;20033;-36
2022/03/14 01:25:43;;;;;;;14.63;7.38;;;1.70;94.30;;;;;;5003649;28;20165;-38
2022/03/14 01:28:09;;;;;;;14.68;7.13;;;1.80;95.50;;;;;;5003028;28;20022;-36
2022/03/14 01:30:35;;;;;;;14.13;7.00;;;1.70;94.40;;;;;;5004888;28;20109;-38
2022/03/14 01:33:01;;;;;;;11.35;7.22;;;1.70;96.80;;;;;;5003359;28;20029;-39
2022/03/14 01:35:27;;;;;;;15.90;7.78;;;1.60;98.10;;;;;;5004004;28;20029;-37
2022/03/14 01:37:54;;;;;;;13.52;7.20;;;1.50;98.70;;;;;;5003827;28;20476;-37
2022/03/14 01:40:20;;;;;;;11.48;6.90;;;1.40;99.90;;;;;;5006100;28;20467;-39
2022/03/14 01:42:46;;;;;;;10.40;6.70;;;1.40;98.20;;;;;;5008046;28;20033;-37
2022/03/14 01:45:13;;;;;;;11.63;7.22;;;1.40;99.90;;;;;;5007180;28;20561;-36
2022/03/14 01:47:41;;;;;;;12.07;6.88;;;1.40;99.90;;;;;;5005150;28;20104;-36
2022/03/14 01:50:07;;;;;;;7.88;5.82;;;1.50;99.90;;;;;;5005389;28;21555;-40
2022/03/14 01:52:34;;;;;;;7.82;5.45;;;1.50;99.90;;;;;;5008188;28;20030;-38
2022/03/14 01:55:01;;;;;;;11.80;6.65;;;1.50;99.90;;;;;;5006464;28;20038;-37
2022/03/14 01:57:27;;;;;;;7.93;5.32;;;1.60;99.90;;;;;;5007564;28;20713;-38
2022/03/14 01:59:54;;;;;;;9.95;5.75;;;1.50;99.90;;;;;;4986656;28;20050;-40
2022/03/14 02:02:20;;;;;;;10.88;6.38;;;1.50;99.90;;;;;;5004294;28;20034;-34
2022/03/14 02:04:47;;;;;;;12.90;7.55;;;1.50;99.90;;;;;;5003030;28;20044;-33
2022/03/14 02:07:12;;;;;;;15.77;6.57;;;1.60;99.90;;;;;;5002280;28;20562;-33
2022/03/14 02:09:38;;;;;;;12.82;6.80;;;1.60;99.90;;;;;;5002122;28;20038;-33
2022/03/14 02:12:06;;;;;;;10.57;5.38;;;1.50;99.90;;;;;;5004450;28;20479;-33
2022/03/14 02:14:31;;;;;;;7.35;4.32;;;1.50;99.90;;;;;;5003534;28;20048;-33
2022/03/14 02:16:57;;;;;;;12.68;7.53;;;1.60;99.90;;;;;;5002456;28;20034;-34
2022/03/14 02:19:23;;;;;;;8.98;5.25;;;1.60;99.90;;;;;;5004413;28;20029;-34
2022/03/14 02:21:49;;;;;;;9.80;5.85;;;1.60;99.90;;;;;;4998328;28;20088;-33
2022/03/14 02:24:15;;;;;;;11.18;6.50;;;1.70;99.90;;;;;;5005638;28;20025;-33
2022/03/14 02:26:43;;;;;;;11.27;6.28;;;1.60;99.90;;;;;;5002403;28;20033;-34
2022/03/14 02:29:10;;;;;;;12.82;6.03;;;1.70;99.90;;;;;;5002829;28;20029;-33
2022/03/14 02:31:37;;;;;;;14.98;8.40;;;1.80;99.20;;;;;;5001792;28;20084;-34
2022/03/14 02:34:04;;;;;;;10.35;6.72;;;1.90;98.40;;;;;;5002937;28;20032;-33
2022/03/14 02:36:30;;;;;;;11.15;6.25;;;2.00;98.10;;;;;;5002534;28;20041;-34
2022/03/14 02:38:55;;;;;;;14.23;7.63;;;2.10;98.60;;;;;;5004842;28;20022;-34
2022/03/14 02:41:25;;;;;;;12.27;7.03;;;2.30;98.50;;;;;;5004280;28;20101;-33
2022/03/14 02:43:51;;;;;;;6.40;4.85;;;2.40;97.60;;;;;;4999157;28;20034;-33
2022/03/14 02:46:17;;;;;;;13.05;6.38;;;2.60;98.20;;;;;;5006087;28;20521;-34
2022/03/14 02:48:43;;;;;;;7.95;3.78;;;2.90;98.60;;;;;;5003255;28;20037;-33
2022/03/14 02:51:09;;;;;;;8.32;5.40;;;3.30;97.50;;;;;;4998879;28;20569;-33
2022/03/14 02:53:34;;;;;;;14.30;7.13;;;3.60;98.30;;;;;;5004970;28;20026;-33
2022/03/14 02:56:00;;;;;;;7.50;4.95;;;3.90;97.00;;;;;;5000701;28;20502;-33
2022/03/14 02:58:28;;;;;;;10.68;5.07;;;4.10;97.70;;;;;;5000878;28;20037;-34
2022/03/14 03:00:57;;;;;;;9.87;5.83;;;4.30;98.70;;;;;;5004110;28;20038;-35
2022/03/14 03:03:23;;;;;;;10.27;5.57;;;4.50;99.00;;;;;;5004581;28;20029;-34
2022/03/14 03:05:48;;;;;;;8.13;5.00;;;4.60;96.80;;;;;;5006528;28;20037;-33
2022/03/14 03:08:14;;;;;;;11.77;6.28;;;4.80;97.10;;;;;;5004721;28;20041;-33
2022/03/14 03:10:41;;;;;;;8.48;5.05;;;5.00;96.90;;;;;;5002429;28;20149;-34
2022/03/14 03:13:09;;;;;;;16.00;7.40;;;5.30;96.40;;;;;;5003694;28;20061;-33
2022/03/14 03:15:36;;;;;;;9.23;5.75;;;5.80;94.30;;;;;;5001784;28;20109;-34
2022/03/14 03:18:02;;;;;;;8.40;5.55;;;6.20;93.10;;;;;;4999132;28;20053;-33
2022/03/14 03:20:28;;;;;;;16.60;7.35;;;6.40;92.30;;;;;;5001000;28;20095;-34
2022/03/14 03:22:54;;;;;;;10.07;5.85;;;6.70;90.20;;;;;;5002179;28;20037;-33
2022/03/14 03:25:19;;;;;;;14.00;8.27;;;6.90;86.20;;;;;;4998241;28;20042;-33
2022/03/14 03:27:45;;;;;;;8.52;5.53;;;7.20;84.20;;;;;;4997986;28;20121;-34
2022/03/14 03:30:11;;;;;;;12.85;7.40;;;7.20;86.90;;;;;;5003302;28;20042;-33
2022/03/14 03:32:36;;;;;;;16.30;6.82;;;7.20;85.20;;;;;;4998183;28;20042;-33
2022/03/14 03:35:02;;;;;;;10.35;6.35;;;7.10;86.90;;;;;;5002119;28;20034;-33
2022/03/14 03:37:28;;;;;;;9.70;5.95;;;7.20;86.80;;;;;;4998558;28;20038;-36
2022/03/14 03:39:54;;;;;;;11.65;7.28;;;7.30;88.60;;;;;;5003659;28;20038;-34
2022/03/14 03:42:20;;;;;;;12.68;6.30;;;7.20;90.20;;;;;;4996493;28;20025;-33
2022/03/14 03:44:45;;;;;;;18.35;10.05;;;7.40;89.80;;;;;;5004953;28;20026;-33
2022/03/14 03:47:11;;;;;;;15.43;9.13;;;7.50;91.00;;;;;;5001317;28;20060;-33
2022/03/14 03:49:38;;;;;;;20.48;10.23;;;7.60;90.90;;;;;;4996153;28;20402;-33
2022/03/14 03:52:04;;;;;;;14.85;7.97;;;7.80;91.30;;;;;;5002742;28;20030;-34
2022/03/14 03:54:30;;;;;;;19.05;9.93;;;7.60;92.30;;;;;;4999316;28;20034;-34
2022/03/14 03:56:55;;;;;;;17.52;10.27;;;7.70;92.00;;;;;;4999536;28;20038;-33
2022/03/14 03:59:21;;;;;;;14.15;7.43;;;7.60;92.40;;;;;;4998426;28;20029;-34
2022/03/14 04:01:47;;;;;;;15.40;8.88;;;7.70;92.50;;;;;;5001427;28;20200;-33
2022/03/14 04:04:13;;;;;;;17.88;8.48;;;7.70;92.60;;;;;;4999105;28;20033;-36
2022/03/14 04:06:40;;;;;;;11.63;6.32;;;7.50;92.80;;;;;;4999750;28;20079;-33
2022/03/14 04:09:06;;;;;;;12.75;6.78;;;7.40;93.80;;;;;;4998935;28;20033;-34
2022/03/14 04:11:32;;;;;;;11.30;6.30;;;7.40;93.70;;;;;;4997013;28;20034;-34
2022/03/14 04:13:59;;;;;;;10.68;5.47;;;7.40;93.90;;;;;;4996609;28;20026;-34
2022/03/14 04:16:28;;;;;;;14.02;6.05;;;7.20;94.40;;;;;;5000884;28;20026;-34
2022/03/14 04:18:54;;;;;;;15.10;8.02;;;7.20;94.90;;;;;;4998101;28;20046;-33
2022/03/14 04:21:20;;;;;;;9.75;6.00;;;7.10;95.10;;;;;;4998188;28;20029;-34
2022/03/14 04:23:46;;;;;;;18.70;9.45;;;7.10;94.60;;;;;;4998548;28;20034;-35
2022/03/14 04:26:12;;;;;;;12.02;7.60;;;7.10;95.60;;;;;;4999818;28;20061;-33
2022/03/14 04:28:40;;;;;;;15.05;7.03;;;7.00;95.80;;;;;;4994852;28;20105;-33
2022/03/14 04:31:06;;;;;;;19.27;9.63;;;6.90;96.00;;;;;;5004044;28;20129;-33
2022/03/14 04:33:33;;;;;;;8.07;5.22;;;6.90;96.00;;;;;;4998313;28;20030;-33
2022/03/14 04:35:59;;;;;;;15.05;7.85;;;6.80;96.40;;;;;;5000720;28;20491;-33
2022/03/14 04:38:26;;;;;;;14.63;7.20;;;6.80;96.70;;;;;;5001842;28;20398;-34
2022/03/14 04:40:51;;;;;;;8.23;5.18;;;6.70;97.20;;;;;;5000246;28;20025;-34
2022/03/14 04:43:17;;;;;;;18.75;7.95;;;6.80;97.40;;;;;;5000669;28;20574;-33
2022/03/14 04:45:43;;;;;;;17.02;9.13;;;6.80;97.60;;;;;;4999069;28;20034;-34
2022/03/14 04:48:09;;;;;;;19.65;9.98;;;6.80;97.80;;;;;;4998415;28;20468;-33
2022/03/14 04:50:36;;;;;;;20.23;9.65;;;6.80;97.40;;;;;;4999775;28;20029;-33
2022/03/14 04:53:04;;;;;;;17.60;9.95;;;6.70;97.80;;;;;;4997277;28;20033;-35
2022/03/14 04:55:29;;;;;;;9.30;5.43;;;6.60;98.30;;;;;;5007123;28;20499;-34
2022/03/14 04:57:55;;;;;;;16.50;9.23;;;6.50;99.00;;;;;;5004153;28;20025;-33
2022/03/14 05:00:22;;;;;;;8.27;4.80;;;6.40;99.80;;;;;;5003440;28;20115;-34
2022/03/14 05:02:47;;;;;;;8.50;4.88;;;6.40;99.90;;;;;;5003632;28;20479;-33
2022/03/14 05:05:13;;;;;;;13.10;7.65;;;6.40;99.90;;;;;;5004725;28;20026;-33
2022/03/14 05:07:40;;;;;;;14.15;6.45;;;6.50;99.90;;;;;;5003888;28;20452;-33
2022/03/14 05:10:07;;;;;;;6.93;3.97;;;6.60;99.90;;;;;;5008636;28;20048;-33
2022/03/14 05:12:34;;;;;;;5.97;5.18;;;6.70;99.90;;;;;;5002957;28;20471;-34
2022/03/14 05:15:00;;;;;;;16.45;8.32;;;6.90;99.90;;;;;;5008266;28;20034;-33
2022/03/14 05:17:30;;;;;;;8.20;6.22;;;7.00;99.60;;;;;;5005538;28;20061;-34
2022/03/14 05:19:56;;;;;;;17.25;8.50;;;7.10;99.20;;;;;;5003476;28;20034;-33
2022/03/14 05:22:22;;;;;;;11.77;6.13;;;7.10;99.20;;;;;;5002201;28;20033;-34
2022/03/14 05:24:47;;;;;;;17.40;7.10;;;7.10;99.40;;;;;;5005434;28;20419;-34
2022/03/14 05:27:14;;;;;;;13.13;7.07;;;7.10;99.10;;;;;;5004451;28;20109;-33
2022/03/14 05:29:39;;;;;;;16.23;7.13;;;7.10;99.00;;;;;;5001743;28;20066;-34
2022/03/14 05:32:05;;;;;;;12.30;7.05;;;7.20;98.80;;;;;;5004974;28;20034;-34
2022/03/14 05:34:31;;;;;;;12.00;6.78;;;7.20;99.20;;;;;;5005149;28;20026;-33
2022/03/14 05:36:58;;;;;;;18.60;9.25;;;7.20;99.40;;;;;;5006009;28;20073;-33
2022/03/14 05:39:23;;;;;;;20.90;8.00;;;7.20;99.00;;;;;;4996542;28;20042;-34
2022/03/14 05:41:49;;;;;;;19.05;7.80;;;7.20;99.70;;;;;;5004946;28;20034;-34
2022/03/14 05:44:15;;;;;;;18.80;6.93;;;7.10;99.90;;;;;;5003252;28;20487;-34
2022/03/14 05:46:40;;;;;;;17.50;5.75;;;7.20;99.90;;;;;;5008348;28;20065;-35
2022/03/14 05:49:06;;;;;;;12.15;5.47;;;7.20;99.90;;;;;;4999846;28;20124;-34
2022/03/14 05:51:34;;;;;;;12.85;6.45;;;7.30;99.90;;;;;;5003056;28;20480;-33
2022/03/14 05:54:00;;;;;;;10.73;5.75;;;7.40;99.90;;;;;;5002051;28;20149;-34
2022/03/14 05:56:26;;;;;;;12.60;5.68;;;7.40;99.90;;;;;;5002720;28;20128;-33
2022/03/14 05:58:52;;;;;;;7.85;4.32;;;7.40;99.90;;;;;;5003425;28;20470;-33
2022/03/14 06:01:17;;;;;;;10.45;5.53;;;7.40;99.90;;;;;;5004228;28;20057;-33
2022/03/14 06:03:43;;;;;;;7.78;5.35;;;7.40;99.90;;;;;;5000286;28;20132;-33
2022/03/14 06:06:08;;;;;;;7.63;4.72;;;7.40;99.90;;;;;;5005935;28;20072;-34
2022/03/14 06:08:34;;;;;;;11.15;5.90;;;7.30;99.90;;;;;;5004145;28;20491;-34
2022/03/14 06:11:00;;;;;;;11.85;6.00;;;7.30;99.90;;;;;;5000369;28;20044;-34
2022/03/14 06:13:25;;;;;;;14.15;5.40;;;7.30;99.90;;;;;;5005413;28;20841;-34
2022/03/14 06:15:51;;;;;;;7.50;5.20;;;7.30;99.90;;;;;;5002554;28;20030;-34
2022/03/14 06:18:17;;;;;;;11.45;6.30;;;7.30;99.90;;;;;;5001360;28;20077;-33
2022/03/14 06:20:43;;;;;;;12.80;5.68;;;7.30;99.90;;;;;;5000731;28;20407;-34
2022/03/14 06:23:09;;;;;;;10.23;5.28;;;7.30;99.90;;;;;;5003086;28;20033;-35
2022/03/14 06:25:36;;;;;;;12.27;5.95;;;7.30;99.90;;;;;;5000103;28;20062;-34
2022/03/14 06:28:02;;;;;;;10.88;5.60;;;7.30;99.90;;;;;;5004026;28;20391;-34
2022/03/14 06:30:28;;;;;;;9.50;5.15;;;7.30;99.90;;;;;;5003581;28;20068;-35
2022/03/14 06:32:54;;;;;;;8.55;5.13;;;7.30;99.90;;;;;;5004231;28;20156;-33
2022/03/14 06:35:20;;;;;;;10.80;6.00;;;7.30;99.90;;;;;;5003120;28;22028;-33
2022/03/14 06:37:46;;;;;;;9.80;5.53;;;7.30;99.90;;;;;;5005623;28;20073;-34
2022/03/14 06:40:12;;;;;;;10.65;5.57;;;7.30;99.90;;;;;;5003339;28;21881;-34
2022/03/14 06:42:39;;;;;;;9.70;5.38;;;7.30;99.90;;;;;;4981769;28;20736;-33
2022/03/14 06:45:05;;;;;;;10.70;5.53;;;7.30;99.90;;;;;;4998243;28;20030;-34
2022/03/14 06:47:32;;;;;;;11.02;5.20;;;7.30;99.90;;;;;;5001588;28;20029;-34
2022/03/14 06:49:58;;;;;;;8.35;4.97;;;7.30;99.90;;;;;;5002470;28;20466;-33
2022/03/14 06:52:24;;;;;;;9.02;4.50;;;7.40;99.90;;;;;;5003200;28;20087;-34
2022/03/14 06:54:49;;;;;;;9.95;4.50;;;7.40;99.90;;;;;;5001352;28;20488;-33
2022/03/14 06:57:15;;;;;;;10.88;4.60;;;7.40;99.90;;;;;;5002482;28;20030;-33
2022/03/14 06:59:40;;;;;;;8.82;3.90;;;7.50;99.90;;;;;;5002031;28;20034;-33
2022/03/14 07:02:07;;;;;;;6.28;4.30;;;7.40;99.90;;;;;;5003711;28;20647;-34
2022/03/14 07:04:34;;;;;;;6.88;4.22;;;7.50;99.90;;;;;;4997754;28;20033;-33
2022/03/14 07:07:02;;;;;;;7.53;3.85;;;7.50;99.90;;;;;;5000107;28;20454;-34
2022/03/14 07:09:28;;;;;;;6.00;3.30;;;7.60;99.90;;;;;;4998046;28;20034;-33
2022/03/14 07:11:54;;;;;;;4.38;2.97;;;7.60;99.90;;;;;;4999625;28;20042;-33
2022/03/14 07:14:19;;;;;;;7.53;3.05;;;7.70;99.90;;;;;;4996451;28;20036;-34
2022/03/14 07:16:46;;;;;;;3.42;2.58;;;7.70;99.90;;;;;;4999617;28;20049;-33
2022/03/14 07:19:11;;;;;;;5.30;2.70;;;7.70;99.90;;;;;;5004255;28;20029;-34
2022/03/14 07:21:37;;;;;;;5.40;2.70;;;7.70;99.90;;;;;;5004080;28;20164;-34
2022/03/14 07:24:04;;;;;;;4.03;2.13;;;7.70;99.90;;;;;;5001365;28;20037;-33
2022/03/14 07:26:29;;;;;;;2.78;1.90;;;7.70;99.90;;;;;;4999805;28;20129;-34
2022/03/14 07:28:55;;;;;;;3.03;2.40;;;7.70;99.90;;;;;;5003869;28;20022;-34
2022/03/14 07:31:21;;;;;;;2.33;1.90;;;7.80;99.90;;;;;;5002317;28;20085;-33
2022/03/14 07:33:48;;;;;;;4.85;1.55;;;7.90;99.90;;;;;;5003462;28;20034;-33
2022/03/14 07:36:14;;;;;;;1.45;1.30;;;8.00;99.90;;;;;;5003515;28;20030;-33
2022/03/14 07:38:39;;;;;;;1.25;1.17;;;8.30;99.90;;;;;;5002551;28;20507;-35
2022/03/14 07:41:05;;;;;;;1.23;1.13;;;8.40;99.90;;;;;;5004456;28;20542;-34
2022/03/14 07:43:31;;;;;;;1.15;0.98;;;8.50;99.90;;;;;;5002982;28;20033;-37
2022/03/14 07:45:57;;;;;;;0.65;0.65;;;8.50;99.90;;;;;;5003217;28;20450;-35
2022/03/14 07:48:23;;;;;;;0.77;0.77;;;8.60;99.90;;;;;;4997805;28;20061;-34
2022/03/14 07:50:49;;;;;;;1.08;1.08;;;8.70;99.90;;;;;;5000235;28;20034;-35
2022/03/14 07:53:15;;;;;;;0.80;0.80;;;8.80;99.90;;;;;;5003253;28;20442;-34
2022/03/14 07:55:40;;;;;;;1.00;1.00;;;8.80;99.90;;;;;;5001878;28;20042;-34
2022/03/14 07:58:06;;;;;;;3.17;1.65;;;8.80;99.90;;;;;;5001062;28;20061;-34
2022/03/14 08:00:32;;;;;;;0.90;0.90;;;8.90;99.90;;;;;;5003303;28;21027;-33
2022/03/14 08:02:57;;;;;;;0.73;0.73;;;9.00;99.90;;;;;;4999771;28;20169;-36
2022/03/14 08:05:25;;;;;;;1.95;1.30;;;9.20;99.90;;;;;;5003669;28;20395;-33
2022/03/14 08:07:51;;;;;;;0.82;0.75;;;9.30;99.90;;;;;;5002235;28;20136;-33
2022/03/14 08:10:18;;;;;;;0.93;0.93;;;9.50;99.90;;;;;;5003292;28;20053;-33
2022/03/14 08:12:49;;;;;;;0.85;0.85;;;9.60;99.40;;;;;;4985396;28;20041;-33
2022/03/14 08:15:23;;;;;;;0.73;0.70;;;9.70;97.80;;;;;;5003480;28;20041;-34
2022/03/14 08:17:50;;;;;;;0.52;0.52;;;9.80;96.20;;;;;;5001810;28;20525;-33
2022/03/14 08:20:16;;;;;;;0.50;0.50;;;9.60;95.50;;;;;;5003178;28;20526;-34
2022/03/14 08:22:43;;;;;;;2.30;0.60;;;9.60;97.70;;;;;;5003333;28;20072;-35
2022/03/14 08:25:10;;;;;;;0.60;0.60;;;9.70;96.70;;;;;;4983214;28;20034;-33
2022/03/14 08:27:35;;;;;;;0.47;0.47;;;9.90;96.40;;;;;;5001234;28;20034;-35
2022/03/14 08:30:02;;;;;;;0.70;0.70;;;10.00;94.40;;;;;;5001050;28;20061;-33
2022/03/14 08:32:28;;;;;;;0.50;0.50;;;10.00;94.40;;;;;;5001409;28;20050;-33
2022/03/14 08:34:54;;;;;;;1.10;1.00;;;9.90;94.00;;;;;;5001564;28;20033;-34
2022/03/14 08:37:20;;;;;;;0.73;0.70;;;10.00;94.50;;;;;;5003578;28;20025;-33
2022/03/14 08:39:48;;;;;;;0.65;0.55;;;10.00;94.20;;;;;;5001340;28;20053;-35
2022/03/14 08:42:14;;;;;;;1.27;0.80;;;10.10;94.10;;;;;;5002914;28;20037;-35
2022/03/14 08:44:39;;;;;;;0.60;0.60;;;10.20;94.20;;;;;;5002823;28;20026;-34
2022/03/14 08:47:05;;;;;;;2.25;0.63;;;10.30;92.70;;;;;;5003083;28;20044;-33
2022/03/14 08:49:30;;;;;;;0.60;0.60;;;10.40;94.40;;;;;;4998685;28;20092;-33
2022/03/14 08:51:56;;;;;;;0.57;0.57;;;10.50;93.10;;;;;;5003773;28;20040;-34
2022/03/14 08:54:22;;;;;;;0.80;0.80;;;10.60;92.20;;;;;;5001477;28;20029;-33
2022/03/14 08:56:47;;;;;;;0.70;0.70;;;10.50;92.90;;;;;;4999962;28;20022;-33
2022/03/14 08:59:13;;;;;;;0.57;0.57;;;10.70;92.10;;;;;;4999485;28;20049;-34
2022/03/14 09:01:39;;;;;;;0.55;0.55;;;10.80;85.20;;;;;;5002362;28;20046;-34
2022/03/14 09:04:05;;;;;;;0.50;0.50;;;10.60;84.40;;;;;;5003438;28;20514;-35
2022/03/14 09:06:32;;;;;;;0.40;0.40;;;10.60;90.00;;;;;;4998916;28;20026;-33
2022/03/14 09:08:58;;;;;;;0.60;0.60;;;10.80;90.20;;;;;;5004743;28;20494;-33
2022/03/14 09:11:24;;;;;;;0.40;0.40;;;10.80;86.30;;;;;;5002755;28;20030;-33
2022/03/14 09:13:50;;;;;;;0.50;0.50;;;10.90;80.70;;;;;;5003732;28;20034;-35
2022/03/14 09:16:15;;;;;;;0.32;0.32;;;10.80;80.20;;;;;;5004773;28;20030;-34
2022/03/14 09:18:41;;;;;;;0.77;0.73;;;10.80;78.90;;;;;;5000777;28;20050;-33
2022/03/14 09:21:07;;;;;;;0.25;0.25;;;10.90;87.60;;;;;;5000013;28;20050;-33
2022/03/14 09:23:32;;;;;;;0.52;0.52;;;11.10;79.70;;;;;;5001705;28;20438;-33
2022/03/14 09:25:58;;;;;;;0.52;0.52;;;11.30;81.70;;;;;;5003367;28;20064;-34
2022/03/14 09:28:25;;;;;;;2.67;0.57;;;11.30;77.40;;;;;;5004846;28;20391;-37
2022/03/14 09:30:51;;;;;;;0.30;0.30;;;11.20;76.20;;;;;;4998279;28;20395;-34
2022/03/14 09:33:17;;;;;;;0.47;0.47;;;11.10;76.20;;;;;;5001895;28;20076;-33
2022/03/14 09:35:43;;;;;;;1.30;0.60;;;11.10;74.80;;;;;;5002667;28;20036;-33
2022/03/14 09:38:14;;;;;;;0.30;0.30;;;10.90;79.00;;;;;;4998416;28;20491;-33
2022/03/14 09:40:41;;;;;;;0.40;0.40;;;11.00;78.40;;;;;;5000677;28;20030;-33
2022/03/14 09:43:07;;;;;;;0.90;0.55;;;11.10;73.50;;;;;;5001480;28;20026;-34
2022/03/14 09:45:35;;;;;;;1.67;0.50;;;11.20;76.80;;;;;;5003904;28;20100;-34
2022/03/14 09:48:03;;;;;;;0.30;0.30;;;11.40;74.40;;;;;;5000324;28;20697;-35
2022/03/14 09:50:35;;;;;;;0.70;0.55;;;11.60;74.10;;;;;;5000825;28;20080;-33
2022/03/14 09:53:06;;;;;;;0.38;0.38;;;11.60;73.40;;;;;;5001684;28;20087;-35
2022/03/14 09:55:34;;;;;;;0.50;0.50;;;11.60;72.90;;;;;;4998981;28;20075;-34
2022/03/14 09:58:00;;;;;;;0.40;0.40;;;11.50;68.60;;;;;;5005848;28;20030;-33
2022/03/14 10:00:25;;;;;;;0.38;0.38;;;11.80;71.80;;;;;;5001775;28;20502;-34
2022/03/14 10:02:51;;;;;;;1.23;0.43;;;11.90;67.20;;;;;;5003212;28;20467;-33
2022/03/14 10:05:19;;;;;;;0.52;0.52;;;12.00;69.60;;;;;;5003452;28;20022;-33
2022/03/14 10:07:45;;;;;;;0.43;0.43;;;12.00;69.90;;;;;;5003512;28;21184;-33
2022/03/14 10:10:11;;;;;;;0.30;0.30;;;11.90;63.80;;;;;;5003980;28;20033;-33
2022/03/14 10:12:37;;;;;;;0.45;0.32;;;11.90;63.60;;;;;;5003372;28;20029;-33
2022/03/14 10:15:06;;;;;;;0.30;0.30;;;11.80;64.00;;;;;;5001946;28;20402;-33
2022/03/14 10:17:34;;;;;;;0.40;0.40;;;11.90;64.10;;;;;;5001340;28;20045;-34
2022/03/14 10:20:01;;;;;;;0.50;0.50;;;11.90;69.20;;;;;;5003025;28;20549;-32
2022/03/14 10:22:35;;;;;;;0.45;0.45;;;12.10;67.60;;;;;;5005826;28;20089;-33
2022/03/14 10:25:09;;;;;;;0.40;0.40;;;12.10;60.60;;;;;;5001074;28;20081;-33
2022/03/14 10:27:37;;;;;;;0.45;0.45;;;12.30;63.80;;;;;;5003408;28;20041;-35
2022/03/14 10:30:04;;;;;;;0.40;0.40;;;12.10;58.90;;;;;;5002024;28;20087;-34
2022/03/14 10:32:30;;;;;;;0.30;0.30;;;12.10;63.30;;;;;;5002280;28;20136;-34
2022/03/14 10:35:01;;;;;;;0.30;0.30;;;12.30;63.50;;;;;;5003495;28;20107;-33
2022/03/14 10:37:28;;;;;;;0.50;0.50;;;12.30;64.90;;;;;;5004935;28;20113;-35
2022/03/14 10:40:05;;;;;;;0.25;0.25;;;12.40;61.90;;;;;;5002465;28;20068;-35
2022/03/14 10:42:42;;;;;;;0.40;0.40;;;12.70;57.90;;;;;;5004000;28;20034;-33
2022/03/14 10:45:17;;;;;;;0.52;0.50;;;12.50;60.60;;;;;;5001447;28;20112;-33
2022/03/14 10:47:51;;;;;;;0.70;0.50;;;12.70;61.90;;;;;;5002444;28;20092;-33
2022/03/14 10:50:35;;;;;;;0.40;0.40;;;12.70;56.00;;;;;;5001059;28;20031;-33
2022/03/14 10:53:09;;;;;;;0.30;0.30;;;12.40;54.00;;;;;;4999439;28;20030;-34
2022/03/14 10:55:43;;;;;;;1.05;0.45;;;12.10;56.10;;;;;;5002145;28;20029;-33
2022/03/14 10:58:21;;;;;;;0.20;0.20;;;12.20;56.70;;;;;;5003801;28;20028;-33
2022/03/14 11:00:55;;;;;;;0.40;0.40;;;12.00;57.50;;;;;;5003050;28;20049;-33
2022/03/14 11:03:29;;;;;;;0.40;0.40;;;12.10;57.10;;;;;;5001770;28;20065;-34
2022/03/14 11:06:17;;;;;;;0.47;0.47;;;12.20;55.30;;;;;;4986612;28;20100;-33
2022/03/14 11:08:51;;;;;;;0.60;0.60;;;12.50;54.20;;;;;;5005281;28;20030;-33
2022/03/14 11:11:21;;;;;;;0.63;0.63;;;12.60;55.70;;;;;;5000063;28;20464;-34
2022/03/14 11:13:49;;;;;;;0.40;0.40;;;12.60;53.80;;;;;;5003506;28;20529;-34
2022/03/14 11:16:29;;;;;;;0.47;0.47;;;12.80;51.80;;;;;;5002537;28;20064;-36
2022/03/14 11:18:56;;;;;;;0.47;0.47;;;12.80;54.00;;;;;;4999269;28;20116;-34
2022/03/14 11:21:27;;;;;;;0.40;0.40;;;13.20;52.60;;;;;;5005452;28;20014;-34
2022/03/14 11:23:54;;;;;;;2.08;0.57;;;13.30;51.70;;;;;;5001039;28;20276;-34
2022/03/14 11:26:25;;;;;;;0.50;0.50;;;13.00;50.50;;;;;;5001491;28;20393;-34
2022/03/14 11:28:52;;;;;;;0.40;0.40;;;12.60;52.00;;;;;;5002185;28;20434;-34
2022/03/14 11:31:19;;;;;;;0.43;0.40;;;12.40;53.20;;;;;;5001985;28;20030;-33
2022/03/14 11:33:46;;;;;;;1.52;0.52;;;12.30;52.80;;;;;;5000370;28;20034;-34
2022/03/14 11:36:12;;;;;;;0.40;0.40;;;12.20;52.90;;;;;;5003690;28;20029;-33
2022/03/14 11:38:38;;;;;;;0.38;0.38;;;12.20;52.60;;;;;;5002191;28;20021;-33
2022/03/14 11:41:04;;;;;;;0.55;0.55;;;12.30;52.80;;;;;;5003672;28;20038;-33
2022/03/14 11:43:30;;;;;;;0.47;0.47;;;12.10;53.10;;;;;;5001404;28;20034;-34
2022/03/14 11:46:01;;;;;;;0.55;0.55;;;12.40;53.80;;;;;;5001678;28;20030;-34
2022/03/14 11:48:34;;;;;;;3.50;0.45;;;12.60;55.40;;;;;;5002241;28;20151;-35
2022/03/14 11:51:02;;;;;;;2.83;0.52;;;12.60;51.70;;;;;;5000710;28;20524;-33
2022/03/14 11:53:34;;;;;;;0.43;0.43;;;12.90;53.80;;;;;;5003949;28;20554;-34
2022/03/14 11:56:07;;;;;;;1.42;0.60;;;13.10;51.90;;;;;;4998389;28;20752;-34
2022/03/14 11:58:36;;;;;;;0.43;0.43;;;13.40;49.50;;;;;;5004833;28;20060;-33
2022/03/14 12:01:27;;;;;;;0.52;0.50;;;13.20;49.80;;;;;;5000911;28;20043;-33
2022/03/14 12:03:59;;;;;;;1.67;0.40;;;13.10;50.00;;;;;;5001761;28;20331;-34
2022/03/14 12:06:43;;;;;;;0.40;0.40;;;13.00;49.50;;;;;;5001913;28;20034;-33
2022/03/14 12:09:09;;;;;;;1.33;0.35;;;12.90;49.90;;;;;;5001175;28;20144;-33
2022/03/14 12:11:38;;;;;;;0.50;0.50;;;13.00;49.10;;;;;;5002941;28;20030;-34
2022/03/14 12:14:08;;;;;;;0.45;0.45;;;12.80;48.40;;;;;;5003409;28;20029;-34
2022/03/14 12:16:44;;;;;;;0.40;0.40;;;12.60;48.80;;;;;;4999736;28;20030;-32
2022/03/14 12:19:49;;;;;;;0.47;0.47;;;12.70;50.40;;;;;;5003049;28;20412;-34
2022/03/14 12:22:35;;;;;;;0.50;0.50;;;12.60;49.70;;;;;;5002047;28;20022;-33
2022/03/14 12:25:04;;;;;;;0.60;0.60;;;12.70;50.30;;;;;;4997563;28;20033;-33
2022/03/14 12:27:37;;;;;;;0.50;0.50;;;12.90;50.20;;;;;;4998412;28;20479;-34
2022/03/14 12:30:27;;;;;;;1.95;0.40;;;13.20;51.70;;;;;;5002321;28;20030;-35
2022/03/14 12:32:54;;;;;;;0.60;0.60;;;13.30;48.40;;;;;;4992393;28;20049;-33
2022/03/14 12:35:24;;;;;;;0.30;0.30;;;13.40;47.80;;;;;;5002688;28;20034;-35
2022/03/14 12:37:56;;;;;;;4.78;1.33;;;13.40;49.10;;;;;;5002061;28;20334;-34
2022/03/14 12:40:21;;;;;;;0.20;0.20;;;13.20;49.10;;;;;;4998822;28;20046;-34
2022/03/14 12:42:55;;;;;;;0.73;0.73;;;13.20;48.00;;;;;;5002965;28;20033;-34
2022/03/14 12:45:28;;;;;;;0.45;0.45;;;13.00;48.40;;;;;;5000299;28;20045;-33
2022/03/14 12:48:12;;;;;;;1.48;0.60;;;13.00;48.20;;;;;;5002182;28;20484;-33
2022/03/14 12:50:49;;;;;;;0.82;0.80;;;13.10;47.40;;;;;;5002174;28;20476;-33